createdAt,value
2022-09-04T05:54:05.314Z,45.83
2022-09-04T05:57:07.864Z,47.40
2022-09-04T05:59:55.611Z,49.57
2022-09-04T06:02:45.541Z,46.93
2022-09-04T06:05:23.679Z,48.67
2022-09-04T06:08:01.551Z,45.13
2022-09-04T06:10:42.486Z,42.63
2022-09-04T06:13:54.264Z,45.07
2022-09-04T06:16:40.810Z,43.57
2022-09-04T06:19:34.882Z,45.17
2022-09-04T06:22:32.774Z,45.20
2022-09-04T06:25:20.353Z,45.00
2022-09-04T06:28:18.933Z,44.17
2022-09-04T06:30:54.815Z,42.23
2022-09-04T06:33:41.689Z,41.17
2022-09-04T06:36:30.500Z,41.87
2022-09-04T06:39:25.189Z,41.40
2022-09-04T06:42:10.260Z,44.10
2022-09-04T06:44:53.552Z,44.23
2022-09-04T06:47:31.989Z,43.73
2022-09-04T06:50:16.951Z,43.77
2022-09-04T06:53:04.018Z,44.93
2022-09-04T06:55:42.580Z,43.90
2022-09-04T06:58:27.041Z,43.60
2022-09-04T07:01:03.695Z,41.87
2022-09-04T07:03:43.243Z,38.33
2022-09-04T07:06:19.589Z,37.70
2022-09-04T07:09:06.590Z,42.13
2022-09-04T07:11:58.029Z,38.67
2022-09-04T07:14:41.679Z,37.00
2022-09-04T07:17:16.285Z,35.77
2022-09-04T07:19:58.992Z,33.50
2022-09-04T07:22:51.464Z,32.87
2022-09-04T07:25:26.257Z,31.17
2022-09-04T07:28:10.003Z,30.87
2022-09-04T07:30:43.821Z,27.37
2022-09-04T07:33:20.034Z,28.17
2022-09-04T07:35:57.094Z,27.53
2022-09-04T07:38:36.084Z,27.60
2022-09-04T07:41:10.643Z,28.10
2022-09-04T07:43:54.722Z,28.03
2022-09-04T07:46:30.346Z,26.33
2022-09-04T07:49:10.192Z,26.10
2022-09-04T07:51:44.161Z,27.10
2022-09-04T07:54:29.591Z,26.60
2022-09-04T07:57:26.591Z,24.37
2022-09-04T08:00:15.374Z,23.83
2022-09-04T08:03:06.103Z,23.90
2022-09-04T08:05:42.217Z,22.57
2022-09-04T08:08:45.247Z,21.40
2022-09-04T08:11:39.368Z,21.83
2022-09-04T08:14:33.791Z,20.57
2022-09-04T08:17:24.567Z,19.40
2022-09-04T08:20:03.898Z,19.47
2022-09-04T08:22:46.083Z,19.17
2022-09-04T08:25:21.404Z,18.23
2022-09-04T08:28:21.580Z,18.07
2022-09-04T08:30:58.003Z,16.47
2022-09-04T08:34:08.902Z,15.00
2022-09-04T08:36:45.527Z,13.63
2022-09-04T08:39:23.119Z,13.87
2022-09-04T08:42:19.849Z,13.87
2022-09-04T08:45:24.314Z,12.33
2022-09-04T08:48:29.265Z,13.47
2022-09-04T08:51:18.419Z,12.13
2022-09-04T08:54:19.953Z,11.47
2022-09-04T08:57:04.428Z,11.53
2022-09-04T08:59:58.663Z,9.67
2022-09-04T09:03:18.032Z,9.32
2022-09-04T09:06:30.104Z,9.87
2022-09-04T09:09:45.987Z,9.68
2022-09-04T09:12:43.801Z,8.77
2022-09-04T09:15:35.344Z,8.52
2022-09-04T09:18:10.358Z,8.07
2022-09-04T09:20:48.539Z,8.75
2022-09-04T09:23:21.584Z,8.20
2022-09-04T09:25:52.900Z,8.48
2022-09-04T09:28:55.973Z,7.32
2022-09-04T09:31:51.048Z,7.47
2022-09-04T09:34:46.722Z,7.72
2022-09-04T09:37:59.095Z,6.90
2022-09-04T09:40:53.883Z,6.70
2022-09-04T09:44:02.824Z,6.65
2022-09-04T09:47:06.781Z,5.90
2022-09-04T09:50:02.129Z,5.85
2022-09-04T09:53:11.718Z,6.18
2022-09-04T09:56:08.694Z,6.10
2022-09-04T09:59:03.679Z,5.18
2022-09-04T10:01:52.721Z,5.45
2022-09-04T10:04:58.384Z,4.75
2022-09-04T10:08:00.319Z,4.75
2022-09-04T10:11:02.261Z,5.30
2022-09-04T10:14:02.922Z,5.72
2022-09-04T10:17:12.223Z,5.50
2022-09-04T10:20:22.981Z,4.60
2022-09-04T10:23:29.527Z,4.65
2022-09-04T10:26:19.935Z,4.85
2022-09-04T10:29:19.647Z,5.10
2022-09-04T10:32:13.694Z,5.07
2022-09-04T10:35:20.408Z,5.20
2022-09-04T10:38:25.835Z,4.95
2022-09-04T10:41:37.292Z,4.72
2022-09-04T10:44:33.300Z,4.18
2022-09-04T10:47:13.737Z,4.13
2022-09-04T10:50:04.921Z,4.65
2022-09-04T10:53:10.599Z,4.68
2022-09-04T10:55:59.362Z,4.82
2022-09-04T10:58:40.702Z,5.05
2022-09-04T11:01:40.964Z,4.03
2022-09-04T11:04:46.638Z,4.60
2022-09-04T11:07:36.594Z,4.07
2022-09-04T11:10:26.961Z,4.50
2022-09-04T11:13:32.950Z,4.35
2022-09-04T11:16:31.741Z,4.00
2022-09-04T11:19:30.317Z,4.63
2022-09-04T11:22:35.124Z,4.30
2022-09-04T11:25:42.799Z,3.85
2022-09-04T11:28:40.380Z,5.00
2022-09-04T11:31:48.476Z,3.78
2022-09-04T11:35:00.707Z,5.40
2022-09-04T11:38:07.898Z,6.45
2022-09-04T11:41:18.792Z,5.40
2022-09-04T11:44:30.877Z,6.35
2022-09-04T11:47:28.433Z,5.65
2022-09-04T11:50:16.575Z,5.60
2022-09-04T11:53:10.252Z,5.60
2022-09-04T11:55:58.749Z,6.05
2022-09-04T11:58:51.530Z,5.82
2022-09-04T12:01:48.147Z,5.10
2022-09-04T12:04:31.696Z,4.13
2022-09-04T12:07:20.994Z,4.20
2022-09-04T12:10:05.243Z,4.22
2022-09-04T12:12:58.007Z,4.00
2022-09-04T12:15:54.349Z,3.50
2022-09-04T12:18:58.490Z,3.45
2022-09-04T12:21:53.795Z,2.53
2022-09-04T12:24:41.374Z,2.47
2022-09-04T12:27:48.030Z,2.53
2022-09-04T12:30:21.415Z,2.45
2022-09-04T12:33:30.384Z,2.50
2022-09-04T12:36:19.975Z,2.45
2022-09-04T12:39:11.990Z,2.20
2022-09-04T12:41:49.852Z,2.00
2022-09-04T12:44:28.262Z,2.42
2022-09-04T12:47:16.824Z,2.40
2022-09-04T12:50:10.183Z,2.30
2022-09-04T12:52:53.298Z,2.08
2022-09-04T12:55:35.929Z,1.90
2022-09-04T12:58:15.762Z,2.00
2022-09-04T13:00:55.340Z,1.50
2022-09-04T13:03:35.052Z,1.50
2022-09-04T13:06:16.244Z,1.73
2022-09-04T13:08:59.629Z,1.70
2022-09-04T13:11:51.048Z,1.63
2022-09-04T13:14:44.044Z,1.80
2022-09-04T13:17:22.109Z,1.65
2022-09-04T13:20:00.763Z,1.95
2022-09-04T13:22:37.223Z,1.48
2022-09-04T13:25:16.117Z,1.50
2022-09-04T13:27:58.874Z,1.63
2022-09-04T13:30:28.831Z,1.73
2022-09-04T13:33:39.992Z,1.55
2022-09-04T13:36:19.260Z,1.55
2022-09-04T13:39:23.385Z,1.60
2022-09-04T13:42:16.352Z,2.15
2022-09-04T13:45:09.553Z,1.48
2022-09-04T13:47:45.368Z,1.67
2022-09-04T13:50:25.022Z,1.70
2022-09-04T13:52:59.734Z,1.50
2022-09-04T13:55:32.623Z,1.85
2022-09-04T13:58:10.646Z,1.70
2022-09-04T14:00:45.851Z,1.80
2022-09-04T14:03:21.195Z,1.65
2022-09-04T14:05:50.043Z,1.50
2022-09-04T14:08:18.872Z,1.80
2022-09-04T14:11:07.550Z,1.55
2022-09-04T14:13:55.581Z,1.30
2022-09-04T14:16:25.530Z,1.45
2022-09-04T14:19:21.191Z,1.50
2022-09-04T14:22:06.107Z,1.50
2022-09-04T14:24:45.897Z,1.42
2022-09-04T14:27:22.157Z,1.75
2022-09-04T14:30:02.115Z,1.60
2022-09-04T14:32:41.191Z,1.48
2022-09-04T14:35:17.997Z,1.45
2022-09-04T14:38:07.824Z,1.30
2022-09-04T14:40:40.627Z,1.70
2022-09-04T14:43:19.515Z,1.55
2022-09-04T14:46:06.960Z,1.30
2022-09-04T14:48:40.918Z,1.25
2022-09-04T14:51:17.268Z,1.63
2022-09-04T14:53:51.034Z,1.73
2022-09-04T14:56:32.379Z,1.60
2022-09-04T14:59:10.471Z,1.50
2022-09-04T15:01:55.715Z,1.35
2022-09-04T15:04:32.546Z,1.35
2022-09-04T15:07:18.395Z,1.42
2022-09-04T15:09:49.956Z,1.38
2022-09-04T15:12:25.349Z,1.40
2022-09-04T15:14:58.640Z,1.42
2022-09-04T15:17:29.219Z,1.52
2022-09-04T15:20:03.275Z,1.50
2022-09-04T15:22:37.793Z,1.55
2022-09-04T15:25:09.172Z,1.20
2022-09-04T15:27:47.089Z,1.17
2022-09-04T15:30:21.563Z,1.33
2022-09-04T15:32:50.818Z,1.40
2022-09-04T15:35:32.797Z,1.20
2022-09-04T15:38:08.189Z,1.40
2022-09-04T15:40:59.566Z,1.35
2022-09-04T15:43:40.497Z,1.60
2022-09-04T15:46:18.089Z,1.85
2022-09-04T15:48:53.670Z,1.30
2022-09-04T15:51:38.277Z,1.17
2022-09-04T15:54:22.383Z,1.48
2022-09-04T15:57:03.411Z,1.20
2022-09-04T15:59:43.748Z,1.40
2022-09-04T16:02:26.420Z,1.30
2022-09-04T16:05:03.480Z,1.23
2022-09-04T16:07:46.687Z,2.65
2022-09-04T16:10:24.643Z,1.60
2022-09-04T16:12:57.760Z,1.38
2022-09-04T16:15:30.632Z,1.52
2022-09-04T16:18:04.120Z,1.38
2022-09-04T16:20:38.160Z,1.20
2022-09-04T16:23:12.153Z,1.25
2022-09-04T16:25:44.012Z,1.45
2022-09-04T16:28:20.184Z,1.50
2022-09-04T16:30:55.122Z,1.30
2022-09-04T16:33:28.344Z,1.58
2022-09-04T16:36:03.111Z,1.30
2022-09-04T16:38:42.254Z,1.40
2022-09-04T16:41:17.150Z,1.60
2022-09-04T16:44:13.748Z,1.42
2022-09-04T16:46:57.429Z,1.25
2022-09-04T16:49:34.939Z,1.40
2022-09-04T16:52:32.125Z,1.17
2022-09-04T16:55:11.532Z,1.52
2022-09-04T16:57:45.516Z,1.27
2022-09-04T17:00:17.662Z,1.35
2022-09-04T17:02:49.155Z,1.50
2022-09-04T17:05:27.964Z,1.35
2022-09-04T17:08:02.667Z,1.25
2022-09-04T17:10:42.471Z,1.35
2022-09-04T17:13:17.922Z,1.27
2022-09-04T17:15:54.916Z,1.40
2022-09-04T17:18:25.372Z,1.40
2022-09-04T17:23:45.711Z,1.70
2022-09-04T17:29:02.473Z,1.30
2022-09-04T17:29:07.714Z,1.70
2022-09-04T17:29:47.092Z,1.10
2022-09-04T17:33:35.548Z,1.50
2022-09-04T17:40:42.212Z,1.40
2022-09-04T17:40:57.151Z,1.20
2022-09-04T17:41:36.267Z,1.25
2022-09-04T17:44:31.784Z,1.05
2022-09-04T17:47:14.435Z,1.23
2022-09-04T17:49:47.069Z,1.42
2022-09-04T17:52:23.896Z,1.58
2022-09-04T17:54:52.623Z,1.00
2022-09-04T17:57:28.559Z,1.65
2022-09-04T18:00:04.191Z,1.60
2022-09-04T18:02:43.702Z,1.50
2022-09-04T18:05:20.042Z,1.48
2022-09-04T18:08:08.139Z,1.20
2022-09-04T18:10:49.554Z,1.92
2022-09-04T18:13:37.803Z,1.73
2022-09-04T18:16:19.519Z,1.30
2022-09-04T18:18:53.477Z,1.60
2022-09-04T18:21:27.044Z,1.50
2022-09-04T18:24:03.029Z,1.30
2022-09-04T18:26:41.468Z,1.40
2022-09-04T18:30:57.253Z,1.67
2022-09-04T18:37:12.307Z,1.55
2022-09-04T18:37:19.635Z,1.50
2022-09-04T18:38:46.239Z,1.77
2022-09-04T18:47:35.080Z,2.00
2022-09-04T18:50:23.090Z,1.77
2022-09-04T18:50:39.225Z,1.85
2022-09-04T18:51:03.140Z,1.90
2022-09-04T18:53:07.294Z,1.80
2022-09-04T18:55:43.647Z,2.00
2022-09-04T18:58:55.525Z,1.98
2022-09-04T19:01:28.314Z,2.28
2022-09-04T19:03:58.296Z,1.90
2022-09-04T19:06:43.985Z,1.80
2022-09-04T19:09:16.765Z,2.20
2022-09-04T19:11:48.746Z,2.65
2022-09-04T19:14:20.497Z,2.35
2022-09-04T19:16:52.158Z,2.50
2022-09-04T19:19:27.212Z,2.63
2022-09-04T19:22:09.174Z,2.42
2022-09-04T19:24:42.882Z,2.42
2022-09-04T19:27:27.704Z,2.30
2022-09-04T19:30:17.770Z,2.63
2022-09-04T19:33:02.807Z,2.60
2022-09-04T19:35:37.285Z,2.80
2022-09-04T19:42:10.792Z,3.50
2022-09-04T19:46:07.831Z,3.83
2022-09-04T19:46:19.665Z,3.83
2022-09-04T19:47:04.930Z,5.82
2022-09-04T19:53:17.833Z,6.50
2022-09-04T19:53:30.049Z,9.68
2022-09-04T19:55:40.086Z,10.35
2022-09-04T19:58:11.093Z,10.75
2022-09-04T20:00:46.547Z,12.30
2022-09-04T20:03:29.304Z,12.03
2022-09-04T20:06:07.719Z,12.57
2022-09-04T20:08:54.054Z,12.30
2022-09-04T20:11:35.858Z,12.88
